createdAt,value
2019-04-26T00:00:45.530Z,5.08
2019-04-26T00:03:16.781Z,4.70
2019-04-26T00:05:46.224Z,4.75
2019-04-26T00:08:17.831Z,5.00
2019-04-26T00:11:18.219Z,4.75
2019-04-26T00:14:16.266Z,5.10
2019-04-26T00:17:08.017Z,4.15
2019-04-26T00:19:38.461Z,4.35
2019-04-26T00:22:07.985Z,4.30
2019-04-26T00:24:37.619Z,4.47
2019-04-26T00:27:06.920Z,4.37
2019-04-26T00:29:36.177Z,3.90
2019-04-26T00:32:05.376Z,4.45
2019-04-26T00:34:36.291Z,4.30
2019-04-26T00:37:05.544Z,4.10
2019-04-26T00:39:34.757Z,4.12
2019-04-26T00:42:04.338Z,4.08
2019-04-26T00:44:33.555Z,4.65
2019-04-26T00:47:04.595Z,5.33
2019-04-26T00:49:43.590Z,5.43
2019-04-26T00:52:07.752Z,5.12
2019-04-26T00:54:37.044Z,4.90
2019-04-26T00:57:06.493Z,5.20
2019-04-26T00:59:36.876Z,6.40
2019-04-26T01:02:15.314Z,6.50
2019-04-26T01:04:45.531Z,6.90
2019-04-26T01:07:15.653Z,7.25
2019-04-26T01:09:44.929Z,6.60
2019-04-26T01:12:14.102Z,6.83
2019-04-26T01:14:43.289Z,6.78
2019-04-26T01:17:12.495Z,7.40
2019-04-26T01:19:42.281Z,7.20
2019-04-26T01:22:16.805Z,7.50
2019-04-26T01:24:48.375Z,8.95
2019-04-26T01:27:19.588Z,9.43
2019-04-26T01:29:50.335Z,9.53
2019-04-26T01:32:20.314Z,9.48
2019-04-26T01:34:51.094Z,9.20
2019-04-26T01:37:20.609Z,9.23
2019-04-26T01:39:54.201Z,9.63
2019-04-26T01:42:48.655Z,9.70
2019-04-26T01:45:23.631Z,9.58
2019-04-26T01:47:55.402Z,10.60
2019-04-26T01:50:26.083Z,10.25
2019-04-26T01:52:56.199Z,10.00
2019-04-26T01:55:27.026Z,10.50
2019-04-26T01:57:59.439Z,11.63
2019-04-26T02:00:46.136Z,11.65
2019-04-26T02:03:23.781Z,12.40
2019-04-26T02:05:54.481Z,12.90
2019-04-26T02:08:24.550Z,14.05
2019-04-26T02:10:53.952Z,14.18
2019-04-26T02:13:25.191Z,14.95
2019-04-26T02:15:54.471Z,14.28
2019-04-26T02:18:24.070Z,15.50
2019-04-26T02:21:07.056Z,15.63
2019-04-26T02:23:55.192Z,15.53
2019-04-26T02:26:38.384Z,15.40
2019-04-26T02:29:14.413Z,16.80
2019-04-26T02:31:45.367Z,16.93
2019-04-26T02:34:14.546Z,17.80
2019-04-26T02:36:58.032Z,19.62
2019-04-26T02:39:23.147Z,18.32
2019-04-26T02:41:55.122Z,19.45
2019-04-26T02:44:29.053Z,19.17
2019-04-26T02:47:30.961Z,18.45
2019-04-26T02:50:04.661Z,18.60
2019-04-26T02:52:57.933Z,19.30
2019-04-26T02:56:07.779Z,21.00
2019-04-26T02:59:03.167Z,19.70
2019-04-26T03:01:34.490Z,19.73
2019-04-26T03:04:03.443Z,20.25
2019-04-26T03:06:34.999Z,19.67
2019-04-26T03:09:07.109Z,19.75
2019-04-26T03:11:39.250Z,20.62
2019-04-26T03:14:27.510Z,19.53
2019-04-26T03:17:09.883Z,19.73
2019-04-26T03:19:54.082Z,19.67
2019-04-26T03:22:44.112Z,20.30
2019-04-26T03:25:21.409Z,20.00
2019-04-26T03:28:43.717Z,19.48
2019-04-26T03:31:27.788Z,19.52
2019-04-26T03:34:22.305Z,20.95
2019-04-26T03:37:47.305Z,20.88
2019-04-26T03:40:36.862Z,19.80
2019-04-26T03:43:28.873Z,20.23
2019-04-26T03:46:16.476Z,19.85
2019-04-26T03:48:59.458Z,21.02
2019-04-26T03:51:48.044Z,19.42
2019-04-26T03:54:20.857Z,19.60
2019-04-26T03:57:13.233Z,19.80
2019-04-26T03:59:55.767Z,18.60
2019-04-26T04:02:54.360Z,18.80
2019-04-26T04:05:37.939Z,19.85
2019-04-26T04:08:10.884Z,17.62
2019-04-26T04:11:05.408Z,17.92
2019-04-26T04:14:15.759Z,16.90
2019-04-26T04:17:05.303Z,17.80
2019-04-26T04:20:38.309Z,17.20
2019-04-26T04:23:52.701Z,16.43
2019-04-26T04:26:28.406Z,17.62
2019-04-26T04:29:39.110Z,17.52
2019-04-26T04:31:58.599Z,17.62
2019-04-26T04:34:34.383Z,16.65
2019-04-26T04:37:05.136Z,16.15
2019-04-26T04:39:53.548Z,17.15
2019-04-26T04:42:48.111Z,16.77
2019-04-26T04:46:11.994Z,16.45
2019-04-26T04:49:22.925Z,16.37
2019-04-26T04:52:19.600Z,16.15
2019-04-26T04:55:06.433Z,18.20
2019-04-26T04:58:02.527Z,18.05
2019-04-26T05:01:19.845Z,17.05
2019-04-26T05:04:02.524Z,18.40
2019-04-26T05:07:15.417Z,17.52
2019-04-26T05:10:05.791Z,19.37
2019-04-26T05:13:02.664Z,19.50
2019-04-26T05:16:13.573Z,18.05
2019-04-26T05:18:58.951Z,18.90
2019-04-26T05:21:57.368Z,20.12
2019-04-26T05:24:51.228Z,15.33
2019-04-26T05:28:02.492Z,15.23
2019-04-26T05:31:16.252Z,15.43
2019-04-26T05:34:14.667Z,15.30
2019-04-26T05:37:00.535Z,15.73
2019-04-26T05:39:37.691Z,16.50
2019-04-26T05:43:12.481Z,16.90
2019-04-26T05:46:42.243Z,16.93
2019-04-26T05:49:44.729Z,16.50
2019-04-26T14:48:40.620Z,7.47
2019-04-26T14:51:12.539Z,7.40
2019-04-26T14:53:39.600Z,8.27
2019-04-26T14:56:08.778Z,8.60
2019-04-26T14:58:38.106Z,8.07
2019-04-26T15:01:13.509Z,7.80
2019-04-26T15:04:02.847Z,7.57
2019-04-26T15:06:35.601Z,7.17
2019-04-26T15:09:18.107Z,7.97
2019-04-26T15:11:52.753Z,8.33
2019-04-26T15:14:12.756Z,8.00
2019-04-26T15:16:44.961Z,7.80
2019-04-26T15:19:14.285Z,8.60
2019-04-26T15:21:43.639Z,10.33
2019-04-26T15:24:12.926Z,7.83
2019-04-26T15:26:42.146Z,7.73
2019-04-26T15:29:13.154Z,8.03
2019-04-26T15:31:42.555Z,8.10
2019-04-26T15:34:12.148Z,8.37
2019-04-26T15:36:43.516Z,8.50
2019-04-26T15:39:25.776Z,8.03
2019-04-26T15:42:25.225Z,8.57
2019-04-26T15:45:13.112Z,8.63
2019-04-26T15:47:59.711Z,8.30
2019-04-26T15:50:36.009Z,8.67
2019-04-26T15:53:06.609Z,9.10
2019-04-26T15:55:39.957Z,9.07
2019-04-26T15:58:08.459Z,9.57
2019-04-26T16:00:38.620Z,9.33
2019-04-26T16:03:07.867Z,9.20
2019-04-26T16:05:37.002Z,9.83
2019-04-26T16:08:06.222Z,11.73
2019-04-26T16:10:38.406Z,10.50
2019-04-26T16:13:17.956Z,9.47
2019-04-26T16:15:37.426Z,8.87
2019-04-26T16:18:10.588Z,8.67
2019-04-26T16:20:42.801Z,10.77
2019-04-26T16:23:13.222Z,9.07
2019-04-26T16:25:42.814Z,8.50
2019-04-26T16:28:38.457Z,10.33
2019-04-26T16:31:28.777Z,8.27
2019-04-26T16:34:04.125Z,7.83
2019-04-26T16:36:32.309Z,8.10
2019-04-26T16:39:06.149Z,8.83
2019-04-26T16:41:37.839Z,7.70
2019-04-26T16:44:06.490Z,9.43
2019-04-26T16:46:35.661Z,9.53
2019-04-26T16:49:06.283Z,8.50
2019-04-26T16:51:36.020Z,8.73
2019-04-26T16:54:08.668Z,8.53
2019-04-26T16:56:37.293Z,8.10
2019-04-26T16:59:06.509Z,8.55
2019-04-26T17:01:38.213Z,8.13
2019-04-26T17:04:11.144Z,8.30
2019-04-26T17:06:44.285Z,9.00
2019-04-26T17:09:10.145Z,8.63
2019-04-26T17:11:41.422Z,8.73
2019-04-26T17:14:11.261Z,8.90
2019-04-26T17:16:42.425Z,8.90
2019-04-26T17:19:11.859Z,9.28
2019-04-26T17:21:49.373Z,9.95
2019-04-26T17:24:43.787Z,9.33
2019-04-26T17:27:14.678Z,8.70
2019-04-26T17:29:43.831Z,9.23
2019-04-26T17:32:15.730Z,9.35
2019-04-26T17:34:44.098Z,10.63
2019-04-26T17:37:17.216Z,9.05
2019-04-26T17:39:47.606Z,9.25
2019-04-26T17:42:15.221Z,9.45
2019-04-26T17:44:44.443Z,9.40
2019-04-26T17:47:13.638Z,9.33
2019-04-26T17:49:44.005Z,9.50
2019-04-26T17:52:13.876Z,9.80
2019-04-26T17:54:49.282Z,9.48
2019-04-26T17:57:15.850Z,10.20
2019-04-26T17:59:48.932Z,9.63
2019-04-26T18:02:31.539Z,9.55
2019-04-26T18:04:58.184Z,9.30
2019-04-26T18:07:37.185Z,10.05
2019-04-26T18:09:50.709Z,10.15
2019-04-26T18:12:20.692Z,9.80
2019-04-26T18:14:49.995Z,9.68
2019-04-26T18:17:38.796Z,9.75
2019-04-26T18:20:23.598Z,9.70
2019-04-26T18:22:57.168Z,10.20
2019-04-26T18:25:26.450Z,10.20
2019-04-26T18:27:55.866Z,10.20
2019-04-26T18:30:26.553Z,11.15
2019-04-26T18:32:55.939Z,10.93
2019-04-26T18:35:25.254Z,11.22
2019-04-26T18:37:54.657Z,11.22
2019-04-26T18:40:24.098Z,10.33
2019-04-26T18:42:55.097Z,10.47
2019-04-26T18:45:28.811Z,11.90
2019-04-26T18:48:01.079Z,11.27
2019-04-26T18:50:28.408Z,11.10
2019-04-26T18:53:26.520Z,10.73
2019-04-26T18:55:59.329Z,11.90
2019-04-26T18:58:30.319Z,12.50
2019-04-26T19:01:05.092Z,11.60
2019-04-26T19:03:33.771Z,10.80
2019-04-26T19:06:05.596Z,11.73
2019-04-26T19:08:45.479Z,12.00
2019-04-26T19:11:07.585Z,13.10
2019-04-26T19:13:46.599Z,13.37
2019-04-26T19:16:46.367Z,13.17
2019-04-26T19:19:26.022Z,14.30
2019-04-26T19:22:00.883Z,15.23
2019-04-26T19:24:29.837Z,14.20
2019-04-26T19:26:59.784Z,14.27
2019-04-26T19:29:33.854Z,14.80
2019-04-26T19:32:03.378Z,14.50
2019-04-26T19:34:31.623Z,14.33
2019-04-26T19:37:03.290Z,13.87
2019-04-26T19:53:01.746Z,16.23
2019-04-26T19:55:56.355Z,17.87
2019-04-26T19:58:28.127Z,17.93
2019-04-26T20:00:57.410Z,17.95
2019-04-26T20:03:27.008Z,17.35
2019-04-26T20:05:58.129Z,16.77
2019-04-26T20:08:29.435Z,17.23
2019-04-26T20:10:58.696Z,17.00
2019-04-26T20:13:28.425Z,17.00
2019-04-26T20:16:02.719Z,16.97
2019-04-26T20:18:32.825Z,18.87
2019-04-26T20:20:59.698Z,19.30
2019-04-26T20:23:31.714Z,18.85
2019-04-26T20:26:07.231Z,20.82
2019-04-26T20:28:35.870Z,20.10
2019-04-26T20:31:22.146Z,20.08
2019-04-26T20:33:51.375Z,19.45
2019-04-26T20:36:21.627Z,18.50
2019-04-26T20:38:52.173Z,17.80
2019-04-26T20:41:22.033Z,17.98
2019-04-26T20:44:03.059Z,18.55
2019-04-26T20:46:24.911Z,19.07
2019-04-26T20:48:53.699Z,19.67
2019-04-26T20:51:24.213Z,21.50
2019-04-26T20:53:55.475Z,21.60
2019-04-26T20:56:24.742Z,21.82
2019-04-26T20:58:54.038Z,20.80
2019-04-26T21:01:24.235Z,20.60
2019-04-26T21:03:54.490Z,21.97
2019-04-26T21:06:23.730Z,22.55
2019-04-26T21:08:54.107Z,23.62
2019-04-26T21:11:23.913Z,24.10
2019-04-26T21:13:53.270Z,22.32
2019-04-26T21:16:23.012Z,23.50
2019-04-26T21:18:52.591Z,21.55
2019-04-26T21:21:21.894Z,24.43
